Time;durP1;ratioP1;P1;durP2;ratioP2;P2;SDS_P1;SDS_P2;PMS_P1;PMS_P2;Temp;Humidity;BMP_temperature;BMP_pressure;BME280_temperature;BME280_humidity;BME280_pressure;Samples;Min_cycle;Max_cycle;Signal;HPM_P1;HPM_P2
2021/03/25 00:00:16;;;;;;;;;;;;;;;-0.24;100.00;101262.81;5073828;28;19958;-64
2021/03/25 00:02:42;;;;;;;;;;;;;;;-0.22;100.00;101263.63;5074213;28;19947;-64
2021/03/25 00:05:11;;;;;;;;;;;;;;;-0.24;100.00;101265.47;5074017;28;20409;-64
2021/03/25 00:07:37;;;;;;;;;;;;;;;-0.30;100.00;101268.28;5074074;28;20401;-64
2021/03/25 00:10:05;;;;;;;;;;;;;;;-0.31;100.00;101266.53;5073464;28;19924;-64
2021/03/25 00:12:32;;;;;;;;;;;;;;;-0.32;100.00;101261.25;5073978;28;19924;-64
2021/03/25 00:14:58;;;;;;;;;;;;;;;-0.31;100.00;101255.88;5073896;28;19925;-64
2021/03/25 00:17:23;;;;;;;;;;;;;;;-0.32;100.00;101255.91;5074059;28;19978;-64
2021/03/25 00:19:49;;;;;;;;;;;;;;;-0.31;100.00;101255.00;5073735;28;20026;-64
2021/03/25 00:22:15;;;;;;;;;;;;;;;-0.34;100.00;101256.81;5073713;28;19932;-64
2021/03/25 00:24:41;;;;;;;;;;;;;;;-0.30;100.00;101246.94;5073755;28;19964;-64
2021/03/25 00:27:07;;;;;;;;;;;;;;;-0.25;100.00;101246.84;5073827;28;19925;-64
2021/03/25 00:29:34;;;;;;;;;;;;;;;-0.26;100.00;101248.63;5073552;28;20374;-64
2021/03/25 00:32:00;;;;;;;;;;;;;;;-0.27;100.00;101246.84;5073974;28;19932;-64
2021/03/25 00:34:26;;;;;;;;;;;;;;;-0.28;100.00;101242.47;5073710;28;19924;-64
2021/03/25 00:36:52;;;;;;;;;;;;;;;-0.24;100.00;101241.44;5055705;28;20348;-64
2021/03/25 00:39:18;;;;;;;;;;;;;;;-0.21;100.00;101240.50;5073273;28;20285;-64
2021/03/25 00:41:44;;;;;;;;;;;;;;;-0.23;100.00;101247.66;5073603;28;19925;-64
2021/03/25 00:44:10;;;;;;;;;;;;;;;-0.25;100.00;101245.03;5073419;28;19925;-64
2021/03/25 00:46:37;;;;;;;;;;;;;;;-0.24;100.00;101243.22;5073665;28;19932;-64
2021/03/25 00:49:03;;;;;;;;;;;;;;;-0.27;100.00;101238.84;5073264;28;19924;-64
2021/03/25 00:51:30;;;;;;;;;;;;;;;-0.27;100.00;101241.53;5073277;28;19932;-64
2021/03/25 00:53:56;;;;;;;;;;;;;;;-0.26;100.00;101240.59;5073229;28;20034;-64
2021/03/25 00:56:22;;;;;;;;;;;;;;;-0.30;100.00;101236.28;5055146;28;19924;-64
2021/03/25 00:58:48;;;;;;;;;;;;;;;-0.33;100.00;101233.72;5055176;28;20389;-64
2021/03/25 01:01:14;;;;;;;;;;;;;;;-0.36;100.00;101237.31;5073095;28;19950;-64
2021/03/25 01:03:41;;;;;;;;;;;;;;;-0.33;100.00;101233.72;5073041;28;20011;-64
2021/03/25 01:06:07;;;;;;;;;;;;;;;-0.38;100.00;101235.63;5054884;28;19928;-64
2021/03/25 01:08:34;;;;;;;;;;;;;;;-0.39;100.00;101239.19;5054673;28;19925;-64
2021/03/25 01:11:01;;;;;;;;;;;;;;;-0.41;100.00;101235.72;5055177;28;19928;-64
2021/03/25 01:13:29;;;;;;;;;;;;;;;-0.43;100.00;101229.53;5055132;28;19924;-64
2021/03/25 01:15:56;;;;;;;;;;;;;;;-0.47;100.00;101226.06;5072872;28;19924;-64
2021/03/25 01:18:22;;;;;;;;;;;;;;;-0.49;100.00;101235.91;5072682;28;19925;-64
2021/03/25 01:20:50;;;;;;;;;;;;;;;-0.51;100.00;101232.41;5054195;28;19924;-64
2021/03/25 01:23:16;;;;;;;;;;;;;;;-0.53;100.00;101237.78;5054754;28;20385;-64
2021/03/25 01:25:42;;;;;;;;;;;;;;;-0.54;100.00;101236.03;5072615;28;19970;-64
2021/03/25 01:28:09;;;;;;;;;;;;;;;-0.52;100.00;101238.69;5054520;28;19925;-64
2021/03/25 01:30:37;;;;;;;;;;;;;;;-0.52;100.00;101247.53;5054658;28;19932;-64
2021/03/25 01:33:05;;;;;;;;;;;;;;;-0.51;100.00;101240.41;5054659;28;19924;-64
2021/03/25 01:35:33;;;;;;;;;;;;;;;-0.47;100.00;101228.72;5054583;28;19925;-64
2021/03/25 01:37:59;;;;;;;;;;;;;;;-0.40;100.00;101234.78;5054348;28;19928;-64
2021/03/25 01:40:28;;;;;;;;;;;;;;;-0.36;100.00;101232.00;5072248;28;20385;-64
2021/03/25 01:43:05;;;;;;;;;;;;;;;-0.37;100.00;101238.25;5072205;28;19932;-64
2021/03/25 01:45:35;;;;;;;;;;;;;;;-0.37;100.00;101229.38;5072378;28;20019;-64
2021/03/25 01:48:02;;;;;;;;;;;;;;;-0.42;100.00;101232.16;5054259;28;19925;-64
2021/03/25 01:50:31;;;;;;;;;;;;;;;-0.48;100.00;101218.09;5072149;28;19978;-64
2021/03/25 01:53:04;;;;;;;;;;;;;;;-0.52;100.00;101223.53;5054345;28;20298;-64
2021/03/25 01:55:36;;;;;;;;;;;;;;;-0.56;100.00;101224.53;5072240;28;20305;-64
2021/03/25 01:58:10;;;;;;;;;;;;;;;-0.61;100.00;101221.13;5071812;28;19928;-64
2021/03/25 02:00:42;;;;;;;;;;;;;;;-0.65;100.00;101219.44;5054057;28;19924;-64
2021/03/25 02:03:23;;;;;;;;;;;;;;;-0.69;100.00;101218.66;5054128;28;20400;-64
2021/03/25 02:06:02;;;;;;;;;;;;;;;-0.73;100.00;101219.66;5057136;28;19928;-65
2021/03/25 02:08:35;;;;;;;;;;;;;;;-0.72;100.00;101223.19;5071447;28;20401;-64
2021/03/25 02:11:05;;;;;;;;;;;;;;;-0.73;100.00;101216.97;5053860;28;19975;-64
2021/03/25 02:13:35;;;;;;;;;;;;;;;-0.76;100.00;101203.75;5054057;28;20157;-64
2021/03/25 02:16:06;;;;;;;;;;;;;;;-0.72;100.00;101209.84;5053983;28;20023;-64
2021/03/25 02:18:53;;;;;;;;;;;;;;;-0.75;100.00;101207.25;5053544;28;19935;-64
2021/03/25 02:21:30;;;;;;;;;;;;;;;-0.83;100.00;101209.25;5071512;28;20265;-64
2021/03/25 02:24:14;;;;;;;;;;;;;;;-0.87;100.00;101203.13;5071589;28;19967;-64
2021/03/25 02:26:46;;;;;;;;;;;;;;;-0.87;100.00;101206.69;5053676;28;19929;-64
2021/03/25 02:29:23;;;;;;;;;;;;;;;-0.89;100.00;101200.50;5053506;28;19924;-64
2021/03/25 02:31:54;;;;;;;;;;;;;;;-0.91;100.00;101199.69;5055333;28;19928;-64
2021/03/25 02:34:22;;;;;;;;;;;;;;;-0.92;100.00;101197.03;5071605;28;20282;-64
2021/03/25 02:36:51;;;;;;;;;;;;;;;-0.91;100.00;101197.03;5053639;28;19924;-64
2021/03/25 02:39:24;;;;;;;;;;;;;;;-0.90;100.00;101193.41;5053484;28;20034;-64
2021/03/25 02:41:52;;;;;;;;;;;;;;;-0.88;100.00;101193.41;5071450;28;19932;-65
2021/03/25 02:44:21;;;;;;;;;;;;;;;-0.94;100.00;101190.88;5053368;28;19933;-64
2021/03/25 02:46:50;;;;;;;;;;;;;;;-0.96;100.00;101190.94;5053578;28;19936;-64
2021/03/25 02:49:21;;;;;;;;;;;;;;;-0.98;100.00;101194.56;5071256;28;19994;-64
2021/03/25 02:51:49;;;;;;;;;;;;;;;-1.04;100.00;101191.13;5053445;28;19978;-64
2021/03/25 02:54:15;;;;;;;;;;;;;;;-1.05;100.00;101200.03;5053409;28;20019;-64
2021/03/25 02:56:46;;;;;;;;;;;;;;;-1.08;100.00;101191.22;5053555;28;19982;-64
2021/03/25 02:59:16;;;;;;;;;;;;;;;-1.11;100.00;101193.97;5071165;28;19924;-64
2021/03/25 03:01:45;;;;;;;;;;;;;;;-1.11;100.00;101193.97;5053430;28;19935;-64
2021/03/25 03:04:19;;;;;;;;;;;;;;;-1.12;100.00;101193.13;5053289;28;19924;-64
2021/03/25 03:06:49;;;;;;;;;;;;;;;-1.09;100.00;101197.50;5053036;28;20007;-64
2021/03/25 03:09:18;;;;;;;;;;;;;;;-1.09;100.00;101197.50;5071148;28;19928;-64
2021/03/25 03:11:47;;;;;;;;;;;;;;;-1.09;100.00;101203.69;5053332;28;19945;-64
2021/03/25 03:14:18;;;;;;;;;;;;;;;-1.08;100.00;101193.88;5071944;28;19976;-64
2021/03/25 03:16:47;;;;;;;;;;;;;;;-1.13;100.00;101193.16;5070550;28;21277;-64
2021/03/25 03:19:15;;;;;;;;;;;;;;;-1.16;100.00;101196.78;5053036;28;19925;-64
2021/03/25 03:21:44;;;;;;;;;;;;;;;-1.20;100.00;101193.28;5053202;28;19932;-64
2021/03/25 03:24:19;;;;;;;;;;;;;;;-1.20;100.00;101197.75;5071002;28;20327;-64
2021/03/25 03:27:01;;;;;;;;;;;;;;;-1.23;100.00;101198.72;5053125;28;19924;-64
2021/03/25 03:29:27;;;;;;;;;;;;;;;-1.24;100.00;101194.28;5070957;28;20074;-64
2021/03/25 03:31:55;;;;;;;;;;;;;;;-1.23;100.00;101201.38;5053338;28;19950;-64
2021/03/25 03:34:38;;;;;;;;;;;;;;;-1.26;100.00;101201.44;5053112;28;19925;-64
2021/03/25 03:37:10;;;;;;;;;;;;;;;-1.30;100.00;101199.75;5071017;28;19924;-64
2021/03/25 03:39:43;;;;;;;;;;;;;;;-1.31;100.00;101203.34;5052816;28;19925;-64
2021/03/25 03:42:13;;;;;;;;;;;;;;;-1.32;100.00;101203.38;5052926;28;19924;-64
2021/03/25 03:44:41;;;;;;;;;;;;;;;-1.33;100.00;101197.19;5072676;28;19947;-64
2021/03/25 03:47:11;;;;;;;;;;;;;;;-1.31;100.00;101197.13;5074523;28;20007;-64
2021/03/25 03:49:40;;;;;;;;;;;;;;;-1.33;100.00;101194.50;5074072;28;20352;-64
2021/03/25 03:52:08;;;;;;;;;;;;;;;-1.37;100.00;101192.84;5056500;28;20451;-64
2021/03/25 03:54:38;;;;;;;;;;;;;;;-1.37;100.00;101196.38;5056598;28;19932;-64
2021/03/25 03:57:13;;;;;;;;;;;;;;;-1.40;100.00;101204.44;5074204;28;19936;-64
2021/03/25 03:59:47;;;;;;;;;;;;;;;-1.40;100.00;101200.91;5056383;28;19932;-64
2021/03/25 04:02:19;;;;;;;;;;;;;;;-1.39;100.00;101206.19;5056246;28;20397;-64
2021/03/25 04:04:49;;;;;;;;;;;;;;;-1.38;100.00;101201.72;5074190;28;19931;-64
2021/03/25 04:07:28;;;;;;;;;;;;;;;-1.40;100.00;101203.56;5056468;28;19932;-64
2021/03/25 04:10:27;;;;;;;;;;;;;;;-1.43;100.00;101203.63;5056205;28;19980;-64
2021/03/25 04:13:00;;;;;;;;;;;;;;;-1.44;100.00;101201.88;5056259;28;19998;-64
2021/03/25 04:15:28;;;;;;;;;;;;;;;-1.41;100.00;101205.34;5056080;28;19932;-64
2021/03/25 04:18:06;;;;;;;;;;;;;;;-1.38;100.00;101202.63;5055922;28;19925;-64
2021/03/25 04:21:04;;;;;;;;;;;;;;;-1.41;100.00;101207.16;5060209;28;20041;-64
2021/03/25 04:23:33;;;;;;;;;;;;;;;-1.44;100.00;101209.84;5073937;28;19925;-64
2021/03/25 04:26:02;;;;;;;;;;;;;;;-1.44;100.00;101215.19;5073735;28;20297;-64
2021/03/25 04:28:31;;;;;;;;;;;;;;;-1.43;100.00;101208.97;5073613;28;19967;-64
2021/03/25 04:30:57;;;;;;;;;;;;;;;-1.41;100.00;101207.16;5073478;28;20399;-64
2021/03/25 04:33:25;;;;;;;;;;;;;;;-1.41;100.00;101201.81;5073964;28;20019;-64
2021/03/25 04:35:51;;;;;;;;;;;;;;;-1.44;100.00;101207.19;5073652;28;19931;-65
2021/03/25 04:38:19;;;;;;;;;;;;;;;-1.47;100.00;101215.28;5073253;28;19936;-67
2021/03/25 04:40:45;;;;;;;;;;;;;;;-1.52;100.00;101213.59;5073567;28;20013;-64
2021/03/25 04:43:15;;;;;;;;;;;;;;;-1.50;100.00;101212.69;5073552;28;19925;-64
2021/03/25 04:45:45;;;;;;;;;;;;;;;-1.52;100.00;101216.25;5073645;28;20382;-64
2021/03/25 04:48:13;;;;;;;;;;;;;;;-1.54;100.00;101210.09;5073571;28;19956;-64
2021/03/25 04:50:41;;;;;;;;;;;;;;;-1.54;100.00;101203.88;5073670;28;19956;-64
2021/03/25 04:53:17;;;;;;;;;;;;;;;-1.52;100.00;101207.41;5073620;28;20010;-64
2021/03/25 04:55:43;;;;;;;;;;;;;;;-1.56;100.00;101209.25;5073430;28;19932;-66
2021/03/25 04:58:12;;;;;;;;;;;;;;;-1.60;100.00;101206.72;5073865;28;19947;-65
2021/03/25 05:00:40;;;;;;;;;;;;;;;-1.61;100.00;101210.28;5073480;28;19932;-64
2021/03/25 05:03:08;;;;;;;;;;;;;;;-1.61;100.00;101212.94;5072881;28;20306;-64
2021/03/25 05:05:35;;;;;;;;;;;;;;;-1.60;100.00;101217.34;5073493;28;20336;-64
2021/03/25 05:08:04;;;;;;;;;;;;;;;-1.58;100.00;101213.72;5073062;28;19931;-64
2021/03/25 05:10:33;;;;;;;;;;;;;;;-1.51;100.00;101214.44;5073111;28;19928;-64
2021/03/25 05:12:59;;;;;;;;;;;;;;;-1.45;100.00;101216.13;5072871;28;19924;-64
2021/03/25 05:15:27;;;;;;;;;;;;;;;-1.41;100.00;101202.69;5073065;28;19977;-64
2021/03/25 05:17:58;;;;;;;;;;;;;;;-1.36;100.00;101213.25;5072907;28;19931;-64
2021/03/25 05:20:31;;;;;;;;;;;;;;;-1.37;100.00;101214.16;5072692;28;19925;-64
2021/03/25 05:23:05;;;;;;;;;;;;;;;-1.30;100.00;101217.53;5072560;28;19971;-64
2021/03/25 05:25:35;;;;;;;;;;;;;;;-1.20;100.00;101211.94;5072675;28;19924;-64
2021/03/25 05:28:04;;;;;;;;;;;;;;;-1.04;100.00;101214.25;5054556;28;19928;-64
2021/03/25 05:30:32;;;;;;;;;;;;;;;-0.98;100.00;101216.75;5054584;28;19928;-65
2021/03/25 05:32:59;;;;;;;;;;;;;;;-0.90;100.00;101220.06;5072219;28;19978;-64
2021/03/25 05:35:28;;;;;;;;;;;;;;;-0.68;100.00;101227.53;5072378;28;19924;-64
2021/03/25 05:37:54;;;;;;;;;;;;;;;-0.46;100.00;101234.97;5069966;28;19929;-64
2021/03/25 05:40:22;;;;;;;;;;;;;;;-0.31;100.00;101225.66;5062830;28;19959;-64
2021/03/25 05:42:52;;;;;;;;;;;;;;;-0.13;100.00;101237.59;5070014;28;19932;-64
2021/03/25 05:45:28;;;;;;;;;;;;;;;0.02;100.00;101230.97;5053832;28;19935;-64
2021/03/25 05:48:24;;;;;;;;;;;;;;;0.19;100.00;101227.75;5056497;28;19924;-64
2021/03/25 05:50:54;;;;;;;;;;;;;;;0.33;100.00;101234.47;5009938;28;19926;-64
2021/03/25 05:53:50;;;;;;;;;;;;;;;0.39;100.00;101232.50;5050567;28;19929;-64
2021/03/25 05:56:22;;;;;;;;;;;;;;;0.43;100.00;101236.84;5010021;28;19925;-64
2021/03/25 05:58:52;;;;;;;;;;;;;;;0.46;100.00;101237.63;5036666;28;20298;-64
2021/03/25 06:01:28;;;;;;;;;;;;;;;0.62;100.00;101229.13;5051865;28;19928;-64
2021/03/25 06:03:58;;;;;;;;;;;;;;;0.94;100.00;101230.75;5063439;28;20014;-64
2021/03/25 06:06:31;;;;;;;;;;;;;;;1.34;100.00;101228.53;5072294;28;20275;-64
2021/03/25 06:09:00;;;;;;;;;;;;;;;1.72;100.00;101241.47;5071372;28;20044;-64
2021/03/25 06:11:35;;;;;;;;;;;;;;;2.14;100.00;101227.44;5065770;28;19932;-64
2021/03/25 06:14:05;;;;;;;;;;;;;;;2.53;100.00;101225.97;5068045;28;19971;-64
2021/03/25 06:16:42;;;;;;;;;;;;;;;2.94;100.00;101228.75;5057297;28;19947;-64
2021/03/25 06:19:23;;;;;;;;;;;;;;;3.34;100.00;101235.13;5077422;28;19928;-64
2021/03/25 06:21:55;;;;;;;;;;;;;;;3.71;100.00;101233.50;5056121;28;20013;-64
2021/03/25 06:24:37;;;;;;;;;;;;;;;3.92;100.00;101229.00;5049235;28;19925;-65
2021/03/25 06:27:10;;;;;;;;;;;;;;;4.19;100.00;101234.91;5051215;28;19929;-64
2021/03/25 06:29:38;;;;;;;;;;;;;;;4.38;100.00;101230.50;5033644;28;19950;-64
2021/03/25 06:32:08;;;;;;;;;;;;;;;4.51;100.00;101224.44;5050957;28;20023;-64
2021/03/25 06:34:38;;;;;;;;;;;;;;;4.69;100.00;101235.28;5051464;28;19925;-64
2021/03/25 06:37:06;;;;;;;;;;;;;;;4.87;100.00;101236.19;5051157;28;20020;-66
2021/03/25 06:39:41;;;;;;;;;;;;;;;4.93;100.00;101232.31;5051234;28;20389;-66
2021/03/25 06:42:14;;;;;;;;;;;;;;;4.93;100.00;101237.69;5051032;28;20012;-66
2021/03/25 06:44:44;;;;;;;;;;;;;;;4.97;100.00;101232.13;5050726;28;19931;-66
2021/03/25 06:47:15;;;;;;;;;;;;;;;5.17;100.00;101238.28;5058416;28;20347;-66
2021/03/25 06:49:45;;;;;;;;;;;;;;;5.52;100.00;101241.88;5051292;28;19931;-66
2021/03/25 06:52:15;;;;;;;;;;;;;;;6.06;100.00;101238.19;5054207;28;20424;-66
2021/03/25 06:54:41;;;;;;;;;;;;;;;6.28;100.00;101237.91;5041239;28;20320;-66
2021/03/25 06:57:12;;;;;;;;;;;;;;;6.43;100.00;101233.50;5063057;28;19925;-66
2021/03/25 06:59:39;;;;;;;;;;;;;;;6.51;100.00;101242.03;5032624;28;19956;-66
2021/03/25 07:02:12;;;;;;;;;;;;;;;6.44;100.00;101240.63;5050850;28;19925;-65
2021/03/25 07:04:39;;;;;;;;;;;;;;;6.92;100.00;101239.75;5068795;28;19978;-66
2021/03/25 07:07:06;;;;;;;;;;;;;;;7.46;100.00;101242.00;5071076;28;20378;-65
2021/03/25 07:09:34;;;;;;;;;;;;;;;7.43;100.00;101248.47;5069144;28;19968;-65
2021/03/25 07:12:01;;;;;;;;;;;;;;;7.93;100.00;101249.03;5070950;28;20282;-65
2021/03/25 07:14:33;;;;;;;;;;;;;;;8.34;100.00;101271.78;5064583;28;19931;-66
2021/03/25 07:16:58;;;;;;;;;;;;;;;8.30;100.00;101249.44;5062662;28;19979;-66
2021/03/25 07:19:25;;;;;;;;;;;;;;;8.78;100.00;101251.84;5052869;28;20031;-66
2021/03/25 07:21:52;;;;;;;;;;;;;;;9.07;100.00;101253.59;5067899;28;19924;-66
2021/03/25 07:24:27;;;;;;;;;;;;;;;9.50;100.00;101256.97;5075018;28;20309;-66
2021/03/25 07:26:56;;;;;;;;;;;;;;;9.84;100.00;101260.06;5075030;28;19931;-66
2021/03/25 07:29:29;;;;;;;;;;;;;;;9.96;100.00;101258.34;5067441;28;20322;-66
2021/03/25 07:31:57;;;;;;;;;;;;;;;10.05;100.00;101260.41;5085532;28;19974;-66
2021/03/25 07:34:31;;;;;;;;;;;;;;;10.27;100.00;101258.00;5057183;28;20381;-66
2021/03/25 07:36:58;;;;;;;;;;;;;;;10.31;100.00;101265.81;5079130;28;19924;-66
2021/03/25 07:39:27;;;;;;;;;;;;;;;10.76;100.00;101261.78;5094484;28;19924;-66
2021/03/25 07:41:55;;;;;;;;;;;;;;;10.42;100.00;101256.91;5073696;28;19924;-66
2021/03/25 07:44:30;;;;;;;;;;;;;;;10.72;100.00;101258.41;5074290;28;19933;-66
2021/03/25 07:46:57;;;;;;;;;;;;;;;10.68;100.00;101257.75;5074522;28;19925;-66
2021/03/25 07:49:23;;;;;;;;;;;;;;;10.71;100.00;101257.50;5073980;28;20267;-66
2021/03/25 07:51:50;;;;;;;;;;;;;;;11.08;100.00;101259.38;5075039;28;19928;-66
2021/03/25 07:54:19;;;;;;;;;;;;;;;11.70;100.00;101262.84;5094544;28;19931;-66
2021/03/25 07:56:52;;;;;;;;;;;;;;;11.84;100.00;101270.78;5094586;28;19928;-66
2021/03/25 07:59:27;;;;;;;;;;;;;;;12.28;100.00;101265.59;5094111;28;19928;-66
2021/03/25 08:01:53;;;;;;;;;;;;;;;12.61;100.00;101265.69;5094449;28;19924;-64
2021/03/25 08:04:23;;;;;;;;;;;;;;;13.20;100.00;101259.91;5074875;28;19971;-66
2021/03/25 08:06:57;;;;;;;;;;;;;;;13.45;98.17;101260.56;5085677;28;20459;-66
2021/03/25 08:09:23;;;;;;;;;;;;;;;13.87;95.07;101257.88;5074941;28;20031;-66
2021/03/25 08:11:50;;;;;;;;;;;;;;;14.09;92.46;101253.28;5070290;28;19978;-66
2021/03/25 08:14:20;;;;;;;;;;;;;;;14.38;90.94;101249.84;5077596;28;19932;-66
2021/03/25 08:16:48;;;;;;;;;;;;;;;14.83;88.07;101251.31;5089623;28;20014;-66
2021/03/25 08:19:27;;;;;;;;;;;;;;;14.45;86.92;101251.00;5073191;28;19986;-66
2021/03/25 08:21:56;;;;;;;;;;;;;;;14.90;85.87;101258.81;5053726;28;20413;-66
2021/03/25 08:24:43;;;;;;;;;;;;;;;15.14;83.10;101253.94;5063260;28;19932;-66
2021/03/25 08:27:21;;;;;;;;;;;;;;;15.17;82.79;101260.00;5067924;28;20013;-66
2021/03/25 08:29:55;;;;;;;;;;;;;;;15.39;80.78;101263.47;5073357;28;20035;-66
2021/03/25 08:32:23;;;;;;;;;;;;;;;15.55;79.47;101261.06;5071585;28;19925;-66
2021/03/25 08:34:59;;;;;;;;;;;;;;;16.14;75.40;101261.00;5073282;28;19924;-65
2021/03/25 08:37:36;;;;;;;;;;;;;;;16.36;69.23;101267.13;5037254;28;20124;-65
2021/03/25 08:40:04;;;;;;;;;;;;;;;16.22;75.12;101263.84;5053040;28;19924;-65
2021/03/25 08:42:33;;;;;;;;;;;;;;;16.60;66.81;101268.50;5037302;28;19932;-64
2021/03/25 08:45:07;;;;;;;;;;;;;;;17.01;68.08;101267.13;5053001;28;19931;-63
2021/03/25 08:47:36;;;;;;;;;;;;;;;17.12;64.53;101267.94;5052981;28;19924;-63
2021/03/25 08:50:11;;;;;;;;;;;;;;;17.32;63.62;101260.44;5052901;28;19924;-65
2021/03/25 08:52:39;;;;;;;;;;;;;;;17.38;62.10;101252.44;5053138;28;19925;-66
2021/03/25 08:55:16;;;;;;;;;;;;;;;17.61;60.59;101256.56;5055089;28;19925;-63
2021/03/25 08:57:43;;;;;;;;;;;;;;;17.68;61.03;101257.69;5073058;28;19924;-65
2021/03/25 09:00:12;;;;;;;;;;;;;;;17.73;62.52;101245.19;5073029;28;19925;-65
2021/03/25 09:02:40;;;;;;;;;;;;;;;17.89;60.92;101254.56;5055141;28;19928;-63
2021/03/25 09:05:09;;;;;;;;;;;;;;;17.95;60.32;101256.72;5072936;28;19932;-64
2021/03/25 09:07:37;;;;;;;;;;;;;;;17.51;61.56;101252.03;5073109;28;19931;-63
2021/03/25 09:10:05;;;;;;;;;;;;;;;17.66;60.62;101255.06;5072555;28;20374;-63
2021/03/25 09:12:32;;;;;;;;;;;;;;;17.59;63.02;101258.63;5072839;28;19924;-65
2021/03/25 09:14:59;;;;;;;;;;;;;;;17.78;63.06;101254.84;5073016;28;20288;-63
2021/03/25 09:17:26;;;;;;;;;;;;;;;17.86;60.21;101255.75;5072938;28;19947;-65
2021/03/25 09:19:53;;;;;;;;;;;;;;;18.02;60.65;101251.44;5072766;28;19994;-65
2021/03/25 09:22:36;;;;;;;;;;;;;;;18.51;57.67;101253.66;5067451;28;19943;-64
2021/03/25 09:25:36;;;;;;;;;;;;;;;18.36;59.99;101253.41;5072864;28;19924;-64
2021/03/25 09:28:04;;;;;;;;;;;;;;;18.72;59.26;101247.72;5037910;28;19925;-64
2021/03/25 09:30:32;;;;;;;;;;;;;;;18.39;56.11;101250.31;5052497;28;20361;-64
2021/03/25 09:33:12;;;;;;;;;;;;;;;18.30;56.42;101251.28;5049160;28;19938;-63
2021/03/25 09:35:44;;;;;;;;;;;;;;;17.90;56.69;101245.31;5051275;28;19936;-64
2021/03/25 09:38:11;;;;;;;;;;;;;;;18.08;58.17;101250.81;5052141;28;19925;-65
2021/03/25 09:40:45;;;;;;;;;;;;;;;18.30;55.03;101252.13;5052822;28;20370;-64
2021/03/25 09:43:30;;;;;;;;;;;;;;;18.40;56.53;101252.03;5051770;28;19931;-66
2021/03/25 09:45:57;;;;;;;;;;;;;;;18.25;55.78;101249.00;5052092;28;19924;-64
2021/03/25 09:48:25;;;;;;;;;;;;;;;18.16;55.81;101239.00;5052093;28;20015;-64
2021/03/25 09:51:03;;;;;;;;;;;;;;;18.35;55.70;101246.16;5051743;28;19933;-64
2021/03/25 09:53:43;;;;;;;;;;;;;;;18.70;53.67;101241.53;5053963;28;19925;-67
2021/03/25 09:56:22;;;;;;;;;;;;;;;19.29;52.39;101238.78;5052194;28;19932;-64
2021/03/25 09:58:48;;;;;;;;;;;;;;;19.80;49.79;101243.28;5052021;28;19963;-64
2021/03/25 10:01:29;;;;;;;;;;;;;;;19.26;50.04;101239.13;5056216;28;19931;-64
2021/03/25 10:03:58;;;;;;;;;;;;;;;19.28;51.10;101238.97;5058872;28;19931;-64
2021/03/25 10:06:44;;;;;;;;;;;;;;;19.78;50.90;101239.88;5066614;28;19924;-64
2021/03/25 10:09:11;;;;;;;;;;;;;;;19.58;46.23;101240.19;5056063;28;19929;-63
2021/03/25 10:11:38;;;;;;;;;;;;;;;19.38;47.41;101240.50;5071396;28;20369;-64
2021/03/25 10:14:24;;;;;;;;;;;;;;;19.44;47.30;101236.25;5061951;28;20371;-64
2021/03/25 10:16:50;;;;;;;;;;;;;;;18.60;48.53;101238.91;5051916;28;20473;-64
2021/03/25 10:19:36;;;;;;;;;;;;;;;18.38;51.20;101232.94;5051417;28;20027;-64
2021/03/25 10:22:05;;;;;;;;;;;;;;;18.27;51.32;101241.47;5055250;28;19928;-64
2021/03/25 10:24:33;;;;;;;;;;;;;;;18.50;51.51;101239.03;5071850;28;20281;-64
2021/03/25 10:27:01;;;;;;;;;;;;;;;19.29;49.78;101235.19;5064565;28;19959;-64
2021/03/25 10:29:29;;;;;;;;;;;;;;;19.82;47.78;101224.75;5052184;28;19933;-64
2021/03/25 10:31:57;;;;;;;;;;;;;;;18.51;48.06;101231.66;5062579;28;19932;-64
2021/03/25 10:34:26;;;;;;;;;;;;;;;18.97;47.61;101232.19;5066083;28;19925;-63
2021/03/25 10:36:54;;;;;;;;;;;;;;;19.34;47.61;101227.28;5071174;28;20032;-64
2021/03/25 10:39:23;;;;;;;;;;;;;;;19.52;47.53;101227.09;5050865;28;19940;-64
2021/03/25 10:41:50;;;;;;;;;;;;;;;19.45;46.61;101229.69;5065814;28;20356;-64
2021/03/25 10:44:16;;;;;;;;;;;;;;;19.50;47.00;101226.44;5070528;28;20042;-64
2021/03/25 10:46:42;;;;;;;;;;;;;;;19.69;47.47;101226.06;5069703;28;20290;-64
2021/03/25 10:49:14;;;;;;;;;;;;;;;19.23;45.26;101221.06;5070742;28;19974;-64
2021/03/25 10:51:41;;;;;;;;;;;;;;;18.45;46.88;101213.91;5068909;28;19983;-64
2021/03/25 10:54:14;;;;;;;;;;;;;;;18.19;48.58;101222.22;5071814;28;19925;-64
2021/03/25 10:56:40;;;;;;;;;;;;;;;18.17;47.17;101227.00;5073808;28;20334;-64
2021/03/25 10:59:18;;;;;;;;;;;;;;;17.71;49.70;101228.00;5075428;28;20070;-63
2021/03/25 11:01:47;;;;;;;;;;;;;;;17.77;49.40;101225.66;5073762;28;20016;-64
2021/03/25 11:04:17;;;;;;;;;;;;;;;17.98;50.13;101219.84;5074943;28;19925;-64
2021/03/25 11:06:43;;;;;;;;;;;;;;;18.67;49.80;101226.22;5073127;28;19936;-64
2021/03/25 11:09:10;;;;;;;;;;;;;;;18.29;48.25;101219.34;5063539;28;19924;-64
2021/03/25 11:11:37;;;;;;;;;;;;;;;18.71;47.56;101213.84;5065734;28;19971;-64
2021/03/25 11:14:04;;;;;;;;;;;;;;;17.78;48.92;101214.50;5073677;28;19932;-65
2021/03/25 11:16:32;;;;;;;;;;;;;;;18.32;50.28;101211.63;5057091;28;19924;-65
2021/03/25 11:19:01;;;;;;;;;;;;;;;18.96;48.16;101207.59;5073166;28;20368;-65
2021/03/25 11:21:31;;;;;;;;;;;;;;;18.40;46.70;101205.31;5059489;28;19986;-65
2021/03/25 11:23:59;;;;;;;;;;;;;;;18.41;49.32;101204.28;5038046;28;19924;-64
2021/03/25 11:26:25;;;;;;;;;;;;;;;18.16;47.92;101204.16;5054345;28;19925;-65
2021/03/25 11:28:51;;;;;;;;;;;;;;;18.60;48.50;101205.03;5054873;28;20309;-65
2021/03/25 11:31:19;;;;;;;;;;;;;;;18.66;47.11;101205.25;5055057;28;19929;-65
2021/03/25 11:33:47;;;;;;;;;;;;;;;18.18;48.06;101214.97;5054243;28;19924;-64
2021/03/25 11:36:14;;;;;;;;;;;;;;;18.65;46.75;101205.41;5054628;28;20534;-64
2021/03/25 11:38:41;;;;;;;;;;;;;;;18.44;46.72;101198.47;5053614;28;20386;-67
2021/03/25 11:41:08;;;;;;;;;;;;;;;18.40;45.78;101197.94;5054056;28;19924;-65
2021/03/25 11:43:46;;;;;;;;;;;;;;;18.47;45.05;101200.88;5054362;28;19948;-67
2021/03/25 11:46:24;;;;;;;;;;;;;;;18.87;45.27;101188.28;5054329;28;19925;-68
2021/03/25 11:48:58;;;;;;;;;;;;;;;18.71;44.14;101196.50;5054092;28;19925;-67
2021/03/25 11:51:25;;;;;;;;;;;;;;;18.83;44.60;101189.66;5054106;28;19954;-67
2021/03/25 11:53:51;;;;;;;;;;;;;;;19.26;44.96;101192.34;5054515;28;19925;-68
2021/03/25 11:56:22;;;;;;;;;;;;;;;19.12;42.28;101193.91;5053668;28;19944;-68
2021/03/25 11:58:49;;;;;;;;;;;;;;;18.60;43.97;101196.78;5036320;28;19936;-69
2021/03/25 12:01:21;;;;;;;;;;;;;;;18.76;43.71;101188.63;5053940;28;19982;-69
2021/03/25 12:03:47;;;;;;;;;;;;;;;18.69;42.90;101184.81;5054070;28;19975;-67
2021/03/25 12:06:18;;;;;;;;;;;;;;;18.68;42.63;101191.31;5058412;28;19924;-68
2021/03/25 12:08:45;;;;;;;;;;;;;;;18.85;43.01;101184.88;5072141;28;19924;-67
2021/03/25 12:11:11;;;;;;;;;;;;;;;18.86;41.96;101185.72;5063007;28;20031;-66
2021/03/25 12:13:38;;;;;;;;;;;;;;;19.66;44.05;101193.38;5054121;28;19955;-65
2021/03/25 12:16:04;;;;;;;;;;;;;;;19.13;41.68;101187.34;5054093;28;19955;-66
2021/03/25 12:18:31;;;;;;;;;;;;;;;19.37;41.84;101172.75;5057661;28;19931;-66
2021/03/25 12:20:58;;;;;;;;;;;;;;;19.03;41.53;101181.16;5071832;28;19931;-65
2021/03/25 12:23:26;;;;;;;;;;;;;;;19.21;43.01;101186.50;5072305;28;19924;-66
2021/03/25 12:25:53;;;;;;;;;;;;;;;19.35;41.59;101180.31;5072480;28;20378;-66
2021/03/25 12:28:19;;;;;;;;;;;;;;;18.65;42.63;101177.91;5071883;28;20309;-66
2021/03/25 12:30:45;;;;;;;;;;;;;;;18.97;44.27;101184.56;5071862;28;19924;-66
2021/03/25 12:33:16;;;;;;;;;;;;;;;19.56;40.39;101174.28;5071896;28;20369;-66
2021/03/25 12:35:42;;;;;;;;;;;;;;;19.50;40.11;101174.13;5073497;28;19960;-66
2021/03/25 12:38:08;;;;;;;;;;;;;;;19.98;40.30;101168.75;5073352;28;19968;-66
2021/03/25 12:40:35;;;;;;;;;;;;;;;20.07;39.70;101173.22;5073517;28;19924;-66
2021/03/25 12:43:01;;;;;;;;;;;;;;;19.93;38.43;101165.66;5055767;28;20392;-66
2021/03/25 12:45:29;;;;;;;;;;;;;;;19.87;38.58;101170.84;5073562;28;19956;-66